TimeCET,TemperatureF,Dew PointF,Humidity,Sea Level PressureIn,VisibilityMPH,Wind Direction,Wind SpeedMPH,Gust SpeedMPH,PrecipitationIn,Events,Conditions,WindDirDegrees,DateUTC
12:55 AM,17.6,17.6,100,29.47,0.0,North,-9999.0,-,N/A,Fog,Light Freezing Fog,0,2012-12-08 23:55:00
1:00 AM,17,17,99,,0,NE,41.4,,,,,40,2012-12-09 00:00:00
1:55 AM,17.6,17.6,100,29.47,0.0,North,-9999.0,-,N/A,Fog-Snow,Light Freezing Fog,0,2012-12-09 00:55:00
2:55 AM,17.6,17.6,100,29.47,0.0,North,-9999.0,-,N/A,Fog-Snow,Light Freezing Fog,0,2012-12-09 01:55:00
5:55 AM,15.8,15.8,100,29.53,0.0,North,-9999.0,-,N/A,Fog-Snow,Light Freezing Fog,0,2012-12-09 04:55:00
6:55 AM,15.8,15.8,100,29.56,0.0,North,-9999.0,-,N/A,Fog-Snow,Light Freezing Fog,0,2012-12-09 05:55:00
7:00 AM,15,15,100,,0,ENE,55.2,,,,,60,2012-12-09 06:00:00
7:55 AM,15.8,15.8,100,29.56,0.0,North,-9999.0,-,N/A,Fog-Snow,Light Freezing Fog,0,2012-12-09 06:55:00
8:55 AM,15.8,15.8,100,29.62,0.0,North,-9999.0,-,N/A,Fog-Snow,Light Freezing Fog,0,2012-12-09 07:55:00
9:55 AM,14.0,14.0,100,29.62,0.0,North,-9999.0,-,N/A,Fog-Snow,Light Freezing Fog,0,2012-12-09 08:55:00
12:55 PM,14.0,14.0,100,29.71,0.0,North,-9999.0,-,N/A,Fog-Snow,Light Freezing Fog,0,2012-12-09 11:55:00
1:00 PM,15,15,98,,0,East,51.8,,,,,80,2012-12-09 12:00:00
1:55 PM,15.8,15.8,100,29.74,0.0,North,-9999.0,-,N/A,Fog-Snow,Light Freezing Fog,0,2012-12-09 12:55:00
3:55 PM,15.8,15.8,100,29.74,0.0,North,-9999.0,-,N/A,Fog,Light Freezing Fog,0,2012-12-09 14:55:00
4:55 PM,17.6,17.6,100,29.77,0.0,North,-9999.0,-,N/A,Fog,Light Freezing Fog,0,2012-12-09 15:55:00
5:55 PM,17.6,17.6,100,29.77,-9999.0,North,-9999.0,-,N/A,,Clear,0,2012-12-09 16:55:00
6:55 PM,17.6,17.6,100,29.77,-9999.0,North,-9999.0,-,N/A,,Clear,0,2012-12-09 17:55:00
7:00 PM,17,17,100,,6,NNE,23.0,,,,,20,2012-12-09 18:00:00
7:55 PM,15.8,15.8,100,29.80,-9999.0,North,-9999.0,-,N/A,,Clear,0,2012-12-09 18:55:00
8:55 PM,15.8,14.0,93,29.80,-9999.0,North,-9999.0,-,N/A,,Clear,0,2012-12-09 19:55:00
9:55 PM,15.8,12.2,86,29.80,-9999.0,North,-9999.0,-,N/A,,Clear,0,2012-12-09 20:55:00
10:55 PM,15.8,12.2,86,29.80,-9999.0,North,-9999.0,-,N/A,,Clear,0,2012-12-09 21:55:00
11:55 PM,15.8,12.2,86,29.80,-9999.0,North,-9999.0,-,N/A,,Clear,0,2012-12-09 22:55:00